Terminal Aerodrome Forecast
Issued by NWS

Home | Current Version | Previous Version | Text Only | Print | Product List | Glossary On
Versions: 1 2 3 4 5 6 7 8 9 10 11 12 13 14 15 16 17 18 19 20
000
FTAK31 PAJN 242300
TAFAJN
TAF
PAJN 242323Z 2500/2524 09010KT P6SM VCSH FEW007 BKN045 OVC060
     FM250100 10010KT P6SM -SHRA BKN035 OVC050
     FM250700 08004KT P6SM VCSH BKN035 OVC050
     FM251200 VRB02KT P6SM BCFG FEW003 BKN060
     FM251700 VRB04KT P6SM FEW006 BKN060
     FM252100 07005KT P6SM SCT060=

USA.gov is the U.S. government's official web portal to all federal, state and local government web resources and services.